LiveATC.Net - Listen to live air traffic control over the Internet!


ICAO: KLBX  IATA: LBX   Airport: Texas Gulf Coast Regional Airport
City: Angleton/Lake Jackson   State/Province: Texas
Country: United States   Continent: North America
KLBX METAR Weather: KLBX 200953Z AUTO 35012KT 10SM OVC018 09/06 A3010 RMK AO2 PK WND 35026/0856 SLP193 T00940056
KLBX Flight Activity (FlightAware)
KLBX Airport Info   (iFlightPlanner)
KLBX VFR Sectional Chart   (iFlightPlanner) 
KLBX IFR Low Altitude Chart   (iFlightPlanner) 
KLBX IFR High Altitude Chart   (iFlightPlanner) 

KLBX CTAF
Feed Status: UP   Listeners: 0
Listen in your browser - HTML5 player (in browser, HTML5)
Click here to listen with your own player (launches your MP3 player)
Archive Access: KLBX CTAF
FacilityFrequency
KLBX CTAF123.000

NOTICE

Unauthorized use prohibited. See LiveATC.net Terms of Service


Airport/ARTCC Code
Frequency Search
(e.g., 124.400, 128.75)
Site-wide search
 


Browse Feeds
Top 50 Feeds
HF Oceanic Feeds
Coverage Map
Bad Weather Areas

LiveATC FAQ
Offer LiveATC feed
Contact LiveATC.net
Press Inquiries

LiveATC on iPhone
LiveATC on Android

LiveATC Mobile
(Mobile browser)

ATC Audio Archives
Interesting Recordings

LiveATC Forums


Home Page
About LiveATC.net
Make a Donation
Terms of Use
Privacy Policy

Canadian Air Freqs

AIRMETs/SIGMETs

FAA Airport Status
NAS Status
Arrival Demand


Server Software By:
Icecast.org
Liquidsoap